createdAt,value
2018-11-11T00:00:44.692Z,110.97
2018-11-11T00:03:12.556Z,111.13
2018-11-11T00:05:40.347Z,109.67
2018-11-11T00:08:08.613Z,111.80
2018-11-11T00:10:36.461Z,103.70
2018-11-11T00:13:04.222Z,108.87
2018-11-11T00:15:31.950Z,99.20
2018-11-11T00:17:59.693Z,96.33
2018-11-11T00:20:27.434Z,103.13
2018-11-11T00:22:55.213Z,106.80
2018-11-11T00:25:23.151Z,108.33
2018-11-11T00:27:50.934Z,98.90
2018-11-11T00:30:19.366Z,105.80
2018-11-11T00:32:47.225Z,99.13
2018-11-11T00:35:15.709Z,107.33
2018-11-11T00:37:43.592Z,106.57
2018-11-11T00:40:13.774Z,110.77
2018-11-11T00:42:41.908Z,104.77
2018-11-11T00:45:10.724Z,100.77
2018-11-11T00:47:38.626Z,102.83
2018-11-11T00:50:07.778Z,95.83
2018-11-11T00:52:35.590Z,101.43
2018-11-11T00:55:03.432Z,99.83
2018-11-11T00:57:31.247Z,98.90
2018-11-11T00:59:58.961Z,99.30
2018-11-11T01:02:26.779Z,97.70
2018-11-11T01:04:54.540Z,96.60
2018-11-11T01:07:22.388Z,92.90
2018-11-11T01:09:50.191Z,101.43
2018-11-11T01:12:18.073Z,86.27
2018-11-11T01:14:45.757Z,95.93
2018-11-11T01:17:13.490Z,83.70
2018-11-11T01:19:41.996Z,82.93
2018-11-11T01:22:09.821Z,82.97
2018-11-11T01:24:37.664Z,88.97
2018-11-11T01:27:05.587Z,85.87
2018-11-11T01:29:33.401Z,90.00
2018-11-11T01:32:02.142Z,80.43
2018-11-11T01:34:30.859Z,80.10
2018-11-11T01:36:58.763Z,79.83
2018-11-11T01:39:26.666Z,88.03
2018-11-11T01:41:54.376Z,80.50
2018-11-11T01:44:22.111Z,80.70
2018-11-11T01:46:49.920Z,80.57
2018-11-11T01:49:17.750Z,79.53
2018-11-11T01:51:45.731Z,75.07
2018-11-11T01:54:13.604Z,72.23
2018-11-11T01:56:41.476Z,70.23
2018-11-11T01:59:09.381Z,77.73
2018-11-11T02:01:37.846Z,72.00
2018-11-11T02:04:05.664Z,74.30
2018-11-11T02:06:33.515Z,73.33
2018-11-11T02:09:02.043Z,68.30
2018-11-11T02:11:29.999Z,69.70
2018-11-11T02:13:58.471Z,70.67
2018-11-11T02:16:26.425Z,71.07
2018-11-11T02:18:54.267Z,70.23
2018-11-11T02:21:22.027Z,69.90
2018-11-11T02:23:49.931Z,67.07
2018-11-11T02:26:17.693Z,67.40
2018-11-11T02:28:46.025Z,70.53
2018-11-11T02:31:13.974Z,66.53
2018-11-11T02:33:42.403Z,69.83
2018-11-11T02:36:10.291Z,67.47
2018-11-11T02:38:38.145Z,62.40
2018-11-11T02:41:06.692Z,66.80
2018-11-11T02:43:34.429Z,65.17
2018-11-11T02:46:02.455Z,65.87
2018-11-11T02:48:30.825Z,72.13
2018-11-11T02:50:58.598Z,67.30
2018-11-11T02:53:26.728Z,66.43
2018-11-11T02:55:54.496Z,70.83
2018-11-11T02:58:22.360Z,66.10
2018-11-11T03:00:50.378Z,65.13
2018-11-11T03:03:18.347Z,65.80
2018-11-11T03:05:46.283Z,70.23
2018-11-11T03:08:14.114Z,67.87
2018-11-11T03:10:42.149Z,64.30
2018-11-11T03:13:09.972Z,67.73
2018-11-11T03:15:38.445Z,62.40
2018-11-11T03:18:06.345Z,68.80
2018-11-11T03:20:34.113Z,71.37
2018-11-11T03:23:01.937Z,69.87
2018-11-11T03:25:29.975Z,69.87
2018-11-11T03:27:57.767Z,75.07
2018-11-11T03:30:25.664Z,68.73
2018-11-11T03:32:54.315Z,71.90
2018-11-11T03:35:22.107Z,71.23
2018-11-11T03:37:50.024Z,70.07
2018-11-11T03:40:19.147Z,73.87
2018-11-11T03:42:47.346Z,67.87
2018-11-11T03:45:16.481Z,73.07
2018-11-11T03:47:45.280Z,73.27
2018-11-11T03:50:13.158Z,76.30
2018-11-11T03:52:41.374Z,72.43
2018-11-11T03:55:09.475Z,68.27
2018-11-11T03:57:37.551Z,69.67
2018-11-11T04:00:07.059Z,73.57
2018-11-11T04:02:34.870Z,68.43
2018-11-11T04:05:02.830Z,77.60
2018-11-11T04:07:30.720Z,70.27
2018-11-11T04:09:58.592Z,71.03
2018-11-11T04:12:26.376Z,69.00
2018-11-11T04:14:54.191Z,71.87
2018-11-11T04:17:22.130Z,69.13
2018-11-11T04:19:49.957Z,72.30
2018-11-11T04:22:18.764Z,72.20
2018-11-11T04:24:48.499Z,68.93
2018-11-11T04:27:16.284Z,72.63
2018-11-11T04:29:44.264Z,76.43
2018-11-11T04:32:12.013Z,72.10
2018-11-11T04:34:40.591Z,71.00
2018-11-11T04:37:08.904Z,73.67
2018-11-11T04:39:36.682Z,66.00
2018-11-11T04:42:04.878Z,74.27
2018-11-11T04:44:32.813Z,74.70
2018-11-11T04:47:00.622Z,78.23
2018-11-11T04:49:29.025Z,75.57
2018-11-11T04:51:56.856Z,72.50
2018-11-11T04:54:24.683Z,81.87
2018-11-11T04:56:52.474Z,78.43
2018-11-11T04:59:20.253Z,69.50
2018-11-11T05:01:48.159Z,76.97
2018-11-11T05:04:15.978Z,74.07
2018-11-11T05:06:43.763Z,71.17
2018-11-11T05:09:12.771Z,79.87
2018-11-11T05:11:40.697Z,72.47
2018-11-11T05:14:08.898Z,78.47
2018-11-11T05:16:36.670Z,72.70
2018-11-11T05:19:05.603Z,81.50
2018-11-11T05:21:34.047Z,75.80
2018-11-11T05:24:02.023Z,82.83
2018-11-11T05:26:29.841Z,75.33
2018-11-11T05:28:58.314Z,80.30
2018-11-11T05:31:26.304Z,83.37
2018-11-11T05:33:54.643Z,83.37
2018-11-11T05:36:22.696Z,84.10
2018-11-11T05:38:51.148Z,87.83
2018-11-11T05:41:19.157Z,87.13
2018-11-11T05:43:46.914Z,86.10
2018-11-11T05:46:14.697Z,91.17
2018-11-11T05:48:42.637Z,82.73
2018-11-11T05:51:10.995Z,81.33
2018-11-11T05:53:38.802Z,84.50
2018-11-11T05:56:06.748Z,87.97
2018-11-11T05:58:35.097Z,83.63
2018-11-11T06:01:02.881Z,89.83
2018-11-11T06:03:30.743Z,93.47
2018-11-11T06:05:58.517Z,89.27
2018-11-11T06:08:27.094Z,92.57
2018-11-11T06:10:54.893Z,84.07
2018-11-11T06:13:22.657Z,87.27
2018-11-11T06:15:50.508Z,87.13
2018-11-11T06:18:18.261Z,87.13
2018-11-11T06:20:46.112Z,90.50
2018-11-11T06:23:13.871Z,88.90
2018-11-11T06:25:41.754Z,82.87
2018-11-11T06:28:09.580Z,89.60
2018-11-11T06:30:37.508Z,90.47
2018-11-11T06:33:05.640Z,92.90
2018-11-11T06:35:33.506Z,89.57
2018-11-11T06:38:02.331Z,84.10
2018-11-11T06:40:30.305Z,89.60
2018-11-11T06:42:58.176Z,96.50
2018-11-11T06:45:26.074Z,91.37
2018-11-11T06:47:53.845Z,83.87
2018-11-11T06:50:21.675Z,82.87
2018-11-11T06:52:50.114Z,92.93
2018-11-11T06:55:17.927Z,85.13
2018-11-11T06:57:45.766Z,81.87
2018-11-11T07:00:15.410Z,83.57
2018-11-11T07:02:54.388Z,85.97
2018-11-11T07:05:22.270Z,89.50
2018-11-11T07:07:50.300Z,85.73
2018-11-11T07:10:18.176Z,84.23
2018-11-11T07:12:46.250Z,92.57
2018-11-11T07:15:15.497Z,95.27
2018-11-11T07:17:43.568Z,95.57
2018-11-11T07:20:12.290Z,88.20
2018-11-11T07:22:40.424Z,83.83
2018-11-11T07:25:08.419Z,85.43
2018-11-11T07:27:37.408Z,92.53
2018-11-11T07:30:06.840Z,79.80
2018-11-11T07:32:35.471Z,85.37
2018-11-11T07:35:04.426Z,95.27
2018-11-11T07:37:32.813Z,93.90
2018-11-11T07:40:00.712Z,82.30
2018-11-11T07:42:29.275Z,88.80
2018-11-11T07:44:57.303Z,77.20
2018-11-11T07:47:26.486Z,80.40
2018-11-11T07:49:55.888Z,83.60
2018-11-11T07:52:23.925Z,77.63
2018-11-11T07:54:52.667Z,79.37
2018-11-11T07:57:22.028Z,81.40
2018-11-11T07:59:53.590Z,86.00
2018-11-11T08:02:23.136Z,75.53
2018-11-11T08:04:51.129Z,83.17
2018-11-11T08:07:19.361Z,74.83
2018-11-11T08:09:47.400Z,82.30
2018-11-11T08:12:15.519Z,82.90
2018-11-11T08:14:45.321Z,78.43
2018-11-11T08:17:14.886Z,82.43
2018-11-11T08:19:42.900Z,82.80
2018-11-11T08:22:13.205Z,86.57
2018-11-11T08:24:42.209Z,87.17
2018-11-11T08:27:10.949Z,88.40
2018-11-11T08:29:39.911Z,85.70
2018-11-11T08:32:07.958Z,84.33
2018-11-11T08:34:39.639Z,90.60
2018-11-11T08:37:08.492Z,82.47
2018-11-11T08:39:36.798Z,83.67
2018-11-11T08:42:06.696Z,83.13
2018-11-11T08:44:35.357Z,84.13
2018-11-11T08:47:03.245Z,83.33
2018-11-11T08:49:31.884Z,80.30
2018-11-11T08:52:01.560Z,88.23
2018-11-11T08:54:47.447Z,95.27
2018-11-11T08:57:22.827Z,87.97
2018-11-11T08:59:54.978Z,91.03
2018-11-11T09:02:25.140Z,89.53
2018-11-11T09:04:53.856Z,82.37
2018-11-11T09:07:24.478Z,81.23
2018-11-11T09:09:53.953Z,82.00
2018-11-11T09:12:40.630Z,79.70
2018-11-11T09:15:29.374Z,82.50
2018-11-11T09:18:04.319Z,76.23
2018-11-11T09:20:42.483Z,63.30
2018-11-11T09:23:12.415Z,69.07
2018-11-11T09:25:41.390Z,72.63
2018-11-11T09:28:13.558Z,76.90
2018-11-11T09:30:41.641Z,72.93
2018-11-11T09:33:09.709Z,78.23
2018-11-11T09:35:39.326Z,76.93
2018-11-11T09:38:07.214Z,80.93
2018-11-11T09:40:35.217Z,77.07
2018-11-11T09:43:03.882Z,77.20
2018-11-11T09:45:32.619Z,75.27
2018-11-11T09:48:02.709Z,66.70
2018-11-11T09:50:31.191Z,69.87
2018-11-11T09:52:59.857Z,84.63
2018-11-11T09:55:29.593Z,143.60
2018-11-11T09:57:58.027Z,113.47
2018-11-11T10:00:27.655Z,81.87
2018-11-11T10:03:16.888Z,74.20
2018-11-11T10:05:49.564Z,68.33
2018-11-11T10:08:22.654Z,69.57
2018-11-11T10:11:31.483Z,68.87
2018-11-11T10:15:04.648Z,69.17
2018-11-11T10:17:38.423Z,80.37
2018-11-11T10:21:16.127Z,69.67
2018-11-11T10:23:52.988Z,83.17
2018-11-11T10:27:30.039Z,77.60
2018-11-11T10:30:03.433Z,69.07
2018-11-11T10:32:48.406Z,73.63
2018-11-11T10:35:33.699Z,74.20
2018-11-11T10:38:19.862Z,67.63
2018-11-11T10:40:53.637Z,74.47
2018-11-11T10:43:42.509Z,72.63
2018-11-11T10:46:48.412Z,74.60
2018-11-11T10:49:24.464Z,75.73
2018-11-11T10:51:52.234Z,70.43
2018-11-11T10:54:20.115Z,72.33
2018-11-11T10:56:47.961Z,74.43
2018-11-11T10:59:15.777Z,70.87
2018-11-11T11:01:49.387Z,77.23
2018-11-11T11:04:17.408Z,78.07
2018-11-11T11:06:50.761Z,79.97
2018-11-11T11:09:19.238Z,75.13
2018-11-11T11:11:46.974Z,76.33
2018-11-11T11:14:14.826Z,86.55
2018-11-11T11:16:44.004Z,78.33
2018-11-11T11:19:11.889Z,79.63
2018-11-11T11:21:40.299Z,78.53
2018-11-11T11:24:08.777Z,82.73
2018-11-11T11:26:36.753Z,91.20
2018-11-11T11:29:04.636Z,79.60
2018-11-11T11:31:32.530Z,81.23
2018-11-11T11:34:01.124Z,77.70
2018-11-11T11:36:28.940Z,82.80
2018-11-11T11:38:56.840Z,79.57
2018-11-11T11:41:24.706Z,81.80
2018-11-11T11:43:52.526Z,76.27
2018-11-11T11:46:20.429Z,91.17
2018-11-11T11:48:49.255Z,78.80
2018-11-11T11:51:17.512Z,81.97
2018-11-11T11:53:45.447Z,79.73
2018-11-11T11:56:15.955Z,86.60
2018-11-11T11:58:44.089Z,79.07
2018-11-11T12:01:13.004Z,77.60
2018-11-11T12:03:57.985Z,86.17
2018-11-11T12:06:27.247Z,83.53
2018-11-11T12:08:57.247Z,83.40
2018-11-11T12:11:25.867Z,91.53
2018-11-11T12:13:56.106Z,91.77
2018-11-11T12:16:25.096Z,87.60
2018-11-11T12:18:53.756Z,101.15
2018-11-11T12:21:24.721Z,90.47
2018-11-11T12:23:52.719Z,79.00
2018-11-11T12:26:27.568Z,88.97
2018-11-11T12:28:57.227Z,86.73
2018-11-11T12:31:27.145Z,73.27
2018-11-11T12:33:56.398Z,78.07
2018-11-11T12:36:27.436Z,76.80
2018-11-11T12:38:57.707Z,77.50
2018-11-11T12:41:29.502Z,80.83
2018-11-11T12:43:57.915Z,84.87
2018-11-11T12:46:29.275Z,84.27
2018-11-11T12:48:57.374Z,79.13
2018-11-11T12:51:26.112Z,81.00
2018-11-11T12:53:54.337Z,87.80
2018-11-11T12:56:30.088Z,85.03
2018-11-11T12:58:59.126Z,85.23
2018-11-11T13:01:28.032Z,77.53
2018-11-11T13:03:58.288Z,84.93
2018-11-11T13:06:27.234Z,76.13
2018-11-11T13:08:56.149Z,73.73
2018-11-11T13:11:26.582Z,70.73
2018-11-11T13:13:56.640Z,72.73
2018-11-11T13:16:26.593Z,71.63
2018-11-11T13:18:55.607Z,81.33
2018-11-11T13:21:27.428Z,84.33
2018-11-11T13:23:56.436Z,81.23
2018-11-11T13:26:25.254Z,81.03
2018-11-11T13:28:53.532Z,85.90
2018-11-11T13:31:23.415Z,75.47
2018-11-11T13:33:51.772Z,79.60
2018-11-11T13:36:22.347Z,75.30
2018-11-11T13:38:50.503Z,83.23
2018-11-11T13:41:19.864Z,75.93
2018-11-11T13:43:50.399Z,81.83
2018-11-11T13:46:20.289Z,77.93
2018-11-11T13:48:49.060Z,84.30
2018-11-11T13:51:17.210Z,82.27
2018-11-11T13:53:45.310Z,78.43
2018-11-11T13:56:16.235Z,79.97
2018-11-11T13:58:44.456Z,76.50
2018-11-11T14:01:13.796Z,77.57
2018-11-11T14:03:44.998Z,82.67
2018-11-11T14:06:14.075Z,82.43
2018-11-11T14:08:42.317Z,79.50
2018-11-11T14:11:12.198Z,79.43
2018-11-11T14:13:43.285Z,79.37
2018-11-11T14:16:13.902Z,82.80
2018-11-11T14:18:42.305Z,81.80
2018-11-11T14:21:10.790Z,88.37
2018-11-11T14:23:39.600Z,79.73
2018-11-11T14:26:07.864Z,88.90
2018-11-11T14:28:37.234Z,84.10
2018-11-11T14:31:07.399Z,84.03
2018-11-11T14:33:38.636Z,82.77
2018-11-11T14:36:07.476Z,83.97
2018-11-11T14:38:35.693Z,87.87
2018-11-11T14:41:05.479Z,87.27
2018-11-11T14:43:34.808Z,77.93
2018-11-11T14:46:03.601Z,77.47
2018-11-11T14:48:31.723Z,84.87
2018-11-11T14:51:01.437Z,101.27
2018-11-11T14:53:36.606Z,86.67
2018-11-11T14:56:09.452Z,89.27
2018-11-11T14:58:38.310Z,92.50
2018-11-11T15:01:06.604Z,96.97
2018-11-11T15:03:34.923Z,85.77
2018-11-11T15:06:03.200Z,88.20
2018-11-11T15:08:34.464Z,88.77
2018-11-11T15:11:04.718Z,96.30
2018-11-11T15:13:32.846Z,91.37
2018-11-11T15:16:01.329Z,94.53
2018-11-11T15:18:30.432Z,87.13
2018-11-11T15:20:58.692Z,83.40
2018-11-11T15:23:27.617Z,93.23
2018-11-11T15:25:55.929Z,90.37
2018-11-11T15:28:25.793Z,92.90
2018-11-11T15:30:54.666Z,100.00
2018-11-11T15:33:24.905Z,99.17
2018-11-11T15:35:53.644Z,90.17
2018-11-11T15:38:23.153Z,95.63
2018-11-11T15:40:51.813Z,93.17
2018-11-11T15:43:25.705Z,96.37
2018-11-11T15:45:55.465Z,91.33
2018-11-11T15:48:23.531Z,89.80
2018-11-11T15:50:54.621Z,97.83
2018-11-11T15:53:22.376Z,94.97
2018-11-11T15:55:51.220Z,92.73
2018-11-11T15:58:20.887Z,91.53
2018-11-11T16:00:48.809Z,93.23
2018-11-11T16:03:16.601Z,96.37
2018-11-11T16:05:44.418Z,93.97
2018-11-11T16:08:12.303Z,98.73
2018-11-11T16:10:40.229Z,99.67
2018-11-11T16:13:08.244Z,99.37
2018-11-11T16:15:38.501Z,97.33
2018-11-11T16:18:08.856Z,102.70
2018-11-11T16:20:36.759Z,109.33
2018-11-11T16:23:05.713Z,120.93
2018-11-11T16:25:33.770Z,152.57
2018-11-11T16:28:01.645Z,126.07
2018-11-11T16:30:30.948Z,109.67
2018-11-11T16:32:59.961Z,105.83
2018-11-11T16:35:28.553Z,107.30
2018-11-11T16:37:56.630Z,109.43
2018-11-11T16:40:25.796Z,113.47
2018-11-11T16:42:53.806Z,95.80
2018-11-11T16:45:23.962Z,95.27
2018-11-11T16:47:51.964Z,91.30
2018-11-11T16:50:22.196Z,101.07
2018-11-11T16:52:51.568Z,100.67
2018-11-11T16:55:20.853Z,91.73
2018-11-11T16:57:49.617Z,94.70
2018-11-11T17:00:22.466Z,84.13
2018-11-11T17:02:50.911Z,95.23
2018-11-11T17:05:27.729Z,90.67
2018-11-11T17:07:55.614Z,91.53
2018-11-11T17:10:24.874Z,86.97
2018-11-11T17:12:54.068Z,96.40
2018-11-11T17:15:24.387Z,84.93
2018-11-11T17:17:53.528Z,94.43
2018-11-11T17:20:22.274Z,94.60
2018-11-11T17:22:51.011Z,91.57
2018-11-11T17:25:20.708Z,91.20
2018-11-11T17:27:48.624Z,104.60
2018-11-11T17:30:21.545Z,98.03
2018-11-11T17:32:51.171Z,98.60
2018-11-11T17:35:19.023Z,93.57
2018-11-11T17:37:47.089Z,92.73
2018-11-11T17:40:17.838Z,85.27
2018-11-11T17:42:46.738Z,90.67
2018-11-11T17:45:15.652Z,84.40
2018-11-11T17:47:45.430Z,93.83
2018-11-11T17:50:15.938Z,87.30
2018-11-11T17:52:43.879Z,95.13
2018-11-11T17:55:13.820Z,88.93
2018-11-11T17:57:42.172Z,89.63
2018-11-11T18:00:11.760Z,86.83
2018-11-11T18:02:40.358Z,87.17
2018-11-11T18:05:09.421Z,87.67
2018-11-11T18:07:39.062Z,93.23
2018-11-11T18:10:10.800Z,96.23
2018-11-11T18:12:39.746Z,97.73
2018-11-11T18:15:08.903Z,96.27
2018-11-11T18:17:37.094Z,92.27
2018-11-11T18:20:08.200Z,101.73
2018-11-11T18:22:36.037Z,99.53
2018-11-11T18:25:04.081Z,91.17
2018-11-11T18:27:32.124Z,91.87
2018-11-11T18:29:59.810Z,92.93
2018-11-11T18:32:27.815Z,101.57
2018-11-11T18:34:55.704Z,98.20
2018-11-11T18:37:23.545Z,93.00
2018-11-11T18:39:51.519Z,87.53
2018-11-11T18:42:19.332Z,94.43
2018-11-11T18:44:47.200Z,91.67
2018-11-11T18:47:22.591Z,91.77
2018-11-11T18:49:50.992Z,98.97
2018-11-11T18:52:20.593Z,94.10
2018-11-11T18:54:49.591Z,95.23
2018-11-11T18:57:17.476Z,93.20
2018-11-11T18:59:45.781Z,88.70
2018-11-11T19:02:13.615Z,91.07
2018-11-11T19:04:41.461Z,92.07
2018-11-11T19:07:09.927Z,97.90
2018-11-11T19:09:37.767Z,139.20
2018-11-11T19:12:09.369Z,129.60
2018-11-11T19:14:39.189Z,138.90
2018-11-11T19:17:07.165Z,140.90
2018-11-11T19:19:36.126Z,128.73
2018-11-11T19:22:04.642Z,107.67
2018-11-11T19:24:33.667Z,111.43
2018-11-11T19:27:01.540Z,102.03
2018-11-11T19:29:30.124Z,100.63
2018-11-11T19:31:58.663Z,96.23
2018-11-11T19:34:26.699Z,130.83
2018-11-11T19:36:55.437Z,107.77
2018-11-11T19:39:23.921Z,91.70
2018-11-11T19:41:52.665Z,90.70
2018-11-11T19:44:22.249Z,93.50
2018-11-11T19:46:52.415Z,83.80
2018-11-11T19:49:20.453Z,84.17
2018-11-11T19:51:50.105Z,85.73
2018-11-11T19:54:20.244Z,83.83
2018-11-11T19:56:48.510Z,97.33
2018-11-11T19:59:16.581Z,78.27
2018-11-11T20:01:46.722Z,81.70
2018-11-11T20:04:16.364Z,79.47
2018-11-11T20:06:45.243Z,79.43
2018-11-11T20:09:14.642Z,81.27
2018-11-11T20:11:42.907Z,75.70
2018-11-11T20:14:12.018Z,80.30
2018-11-11T20:16:40.292Z,81.70
2018-11-11T20:19:09.008Z,76.17
2018-11-11T20:21:37.953Z,74.57
2018-11-11T20:24:05.975Z,80.07
2018-11-11T20:26:33.875Z,79.23
2018-11-11T20:29:03.376Z,78.57
2018-11-11T20:31:31.408Z,82.20
2018-11-11T20:33:59.755Z,78.63
2018-11-11T20:36:28.541Z,76.00
2018-11-11T20:38:57.353Z,75.57
2018-11-11T20:41:25.221Z,76.07
2018-11-11T20:43:53.062Z,77.47
2018-11-11T20:46:23.649Z,74.13
2018-11-11T20:48:51.557Z,74.47
2018-11-11T20:51:20.185Z,86.97
2018-11-11T20:53:48.157Z,82.37
2018-11-11T20:56:16.157Z,87.20
2018-11-11T20:58:43.890Z,86.17
2018-11-11T21:01:12.457Z,81.47
2018-11-11T21:03:40.523Z,83.23
2018-11-11T21:06:08.513Z,85.00
2018-11-11T21:08:37.084Z,80.90
2018-11-11T21:11:04.928Z,84.70
2018-11-11T21:13:32.716Z,74.87
2018-11-11T21:16:00.556Z,85.27
2018-11-11T21:18:28.400Z,84.37
2018-11-11T21:20:56.208Z,88.37
2018-11-11T21:23:24.742Z,85.27
2018-11-11T21:25:52.566Z,82.40
2018-11-11T21:28:20.379Z,85.60
2018-11-11T21:30:48.171Z,83.80
2018-11-11T21:33:15.977Z,89.30
2018-11-11T21:35:43.835Z,82.77
2018-11-11T21:38:11.889Z,93.13
2018-11-11T21:40:39.855Z,89.83
2018-11-11T21:43:08.451Z,93.93
2018-11-11T21:45:36.281Z,88.33
2018-11-11T21:48:04.957Z,83.80
2018-11-11T21:50:32.851Z,84.83
2018-11-11T21:53:33.582Z,91.10
2018-11-11T21:56:01.902Z,84.07
2018-11-11T21:58:29.954Z,87.47
2018-11-11T22:00:57.904Z,88.17
2018-11-11T22:03:26.048Z,87.67
2018-11-11T22:05:54.316Z,85.40
2018-11-11T22:08:22.848Z,86.47
2018-11-11T22:10:51.224Z,78.80
2018-11-11T22:13:19.682Z,89.93
2018-11-11T22:15:48.279Z,75.67
2018-11-11T22:18:16.927Z,79.93
2018-11-11T22:20:44.969Z,81.80
2018-11-11T22:23:13.503Z,87.13
2018-11-11T22:25:41.490Z,95.13
2018-11-11T22:28:10.041Z,91.03
2018-11-11T22:30:38.007Z,93.77
2018-11-11T22:33:05.879Z,96.87
2018-11-11T22:35:34.050Z,97.63
2018-11-11T22:38:01.874Z,97.30
2018-11-11T22:40:29.693Z,87.23
2018-11-11T22:42:58.193Z,93.67
2018-11-11T22:45:26.023Z,94.83
2018-11-11T22:47:53.854Z,90.80
2018-11-11T22:50:21.677Z,91.50
2018-11-11T22:52:49.599Z,91.40
2018-11-11T22:55:17.535Z,89.27
2018-11-11T22:57:45.550Z,92.60
2018-11-11T23:00:19.974Z,94.40
2018-11-11T23:02:48.113Z,93.50
2018-11-11T23:05:17.721Z,85.20
2018-11-11T23:07:46.758Z,89.13
2018-11-11T23:10:14.682Z,88.80
2018-11-11T23:12:42.541Z,97.73
2018-11-11T23:15:12.342Z,95.37
2018-11-11T23:17:40.199Z,91.23
2018-11-11T23:20:09.893Z,87.80
2018-11-11T23:22:37.868Z,84.90
2018-11-11T23:25:06.948Z,90.47
2018-11-11T23:27:35.139Z,85.83
2018-11-11T23:30:03.278Z,85.70
2018-11-11T23:32:31.848Z,88.67
2018-11-11T23:34:59.834Z,87.13
2018-11-11T23:37:29.454Z,104.10
2018-11-11T23:39:57.333Z,94.00
2018-11-11T23:42:25.218Z,86.93
2018-11-11T23:44:53.521Z,86.70
2018-11-11T23:47:22.046Z,80.00
2018-11-11T23:49:51.160Z,78.60
2018-11-11T23:52:19.923Z,77.53
2018-11-11T23:54:48.954Z,77.67
2018-11-11T23:57:18.483Z,90.10
2018-11-11T23:59:46.322Z,82.03
